sensor_id;sensor_type;location;lat;lon;timestamp;P1;durP1;ratioP1;P2;durP2;ratioP2
34471;SDS011;20710;49.976;19.836;2023-05-16T00:05:32;3.40;;;2.00;;
34471;SDS011;20710;49.976;19.836;2023-05-16T00:11:34;3.90;;;1.90;;
34471;SDS011;20710;49.976;19.836;2023-05-16T00:17:35;3.00;;;2.00;;
34471;SDS011;20710;49.976;19.836;2023-05-16T00:23:37;4.60;;;2.10;;
34471;SDS011;20710;49.976;19.836;2023-05-16T00:29:39;4.20;;;2.10;;
34471;SDS011;20710;49.976;19.836;2023-05-16T00:35:41;4.40;;;2.20;;
34471;SDS011;20710;49.976;19.836;2023-05-16T00:41:43;3.80;;;2.10;;
34471;SDS011;20710;49.976;19.836;2023-05-16T00:47:46;2.70;;;2.00;;
34471;SDS011;20710;49.976;19.836;2023-05-16T00:53:48;3.70;;;2.40;;
34471;SDS011;20710;49.976;19.836;2023-05-16T00:59:50;1.90;;;1.60;;
34471;SDS011;20710;49.976;19.836;2023-05-16T01:05:52;3.50;;;1.80;;
34471;SDS011;20710;49.976;19.836;2023-05-16T01:12:03;4.30;;;2.00;;
34471;SDS011;20710;49.976;19.836;2023-05-16T01:18:15;2.90;;;1.80;;
34471;SDS011;20710;49.976;19.836;2023-05-16T02:00:43;4.80;;;2.20;;
34471;SDS011;20710;49.976;19.836;2023-05-16T02:13:48;2.90;;;2.50;;
34471;SDS011;20710;49.976;19.836;2023-05-16T03:03:25;8.90;;;3.90;;
34471;SDS011;20710;49.976;19.836;2023-05-16T03:17:33;5.40;;;3.90;;
34471;SDS011;20710;49.976;19.836;2023-05-16T03:32:31;4.30;;;3.50;;
34471;SDS011;20710;49.976;19.836;2023-05-16T04:09:11;6.90;;;4.80;;
34471;SDS011;20710;49.976;19.836;2023-05-16T04:23:15;8.00;;;5.80;;
34471;SDS011;20710;49.976;19.836;2023-05-16T05:29:04;5.30;;;3.50;;
34471;SDS011;20710;49.976;19.836;2023-05-16T06:11:42;7.30;;;3.30;;
34471;SDS011;20710;49.976;19.836;2023-05-16T06:17:46;4.20;;;3.40;;
34471;SDS011;20710;49.976;19.836;2023-05-16T06:46:52;6.20;;;4.60;;
34471;SDS011;20710;49.976;19.836;2023-05-16T06:59:46;6.00;;;4.00;;
34471;SDS011;20710;49.976;19.836;2023-05-16T07:27:11;4.60;;;3.40;;
34471;SDS011;20710;49.976;19.836;2023-05-16T07:34:01;5.40;;;3.50;;
34471;SDS011;20710;49.976;19.836;2023-05-16T07:40:03;5.20;;;4.10;;
34471;SDS011;20710;49.976;19.836;2023-05-16T07:46:05;8.20;;;4.30;;
34471;SDS011;20710;49.976;19.836;2023-05-16T07:52:11;4.70;;;4.00;;
34471;SDS011;20710;49.976;19.836;2023-05-16T07:59:42;6.60;;;4.80;;
34471;SDS011;20710;49.976;19.836;2023-05-16T08:07:11;6.50;;;4.10;;
34471;SDS011;20710;49.976;19.836;2023-05-16T08:20:31;3.90;;;3.50;;
34471;SDS011;20710;49.976;19.836;2023-05-16T08:28:15;4.90;;;3.60;;
34471;SDS011;20710;49.976;19.836;2023-05-16T08:34:58;4.90;;;4.30;;
34471;SDS011;20710;49.976;19.836;2023-05-16T08:41:37;6.80;;;4.10;;
34471;SDS011;20710;49.976;19.836;2023-05-16T08:47:43;6.90;;;4.00;;
34471;SDS011;20710;49.976;19.836;2023-05-16T09:01:22;5.50;;;4.60;;
34471;SDS011;20710;49.976;19.836;2023-05-16T09:08:27;5.80;;;4.90;;
34471;SDS011;20710;49.976;19.836;2023-05-16T09:15:32;6.00;;;4.30;;
34471;SDS011;20710;49.976;19.836;2023-05-16T09:21:35;7.50;;;4.10;;
34471;SDS011;20710;49.976;19.836;2023-05-16T09:27:37;9.70;;;5.50;;
34471;SDS011;20710;49.976;19.836;2023-05-16T09:33:40;5.80;;;4.50;;
34471;SDS011;20710;49.976;19.836;2023-05-16T09:39:51;7.20;;;5.10;;
34471;SDS011;20710;49.976;19.836;2023-05-16T09:46:14;7.50;;;4.70;;
34471;SDS011;20710;49.976;19.836;2023-05-16T09:52:37;5.50;;;4.10;;
34471;SDS011;20710;49.976;19.836;2023-05-16T09:58:40;6.00;;;4.10;;
34471;SDS011;20710;49.976;19.836;2023-05-16T10:04:44;5.30;;;4.30;;
34471;SDS011;20710;49.976;19.836;2023-05-16T10:11:03;4.20;;;3.60;;
34471;SDS011;20710;49.976;19.836;2023-05-16T10:17:06;4.10;;;3.50;;
34471;SDS011;20710;49.976;19.836;2023-05-16T10:23:27;4.00;;;3.60;;
34471;SDS011;20710;49.976;19.836;2023-05-16T10:29:30;5.90;;;4.00;;
34471;SDS011;20710;49.976;19.836;2023-05-16T10:35:33;5.10;;;3.00;;
34471;SDS011;20710;49.976;19.836;2023-05-16T10:41:36;4.40;;;3.70;;
34471;SDS011;20710;49.976;19.836;2023-05-16T10:47:58;4.50;;;3.80;;
34471;SDS011;20710;49.976;19.836;2023-05-16T10:54:43;6.40;;;4.60;;
34471;SDS011;20710;49.976;19.836;2023-05-16T11:01:14;7.20;;;4.20;;
34471;SDS011;20710;49.976;19.836;2023-05-16T11:07:18;3.40;;;3.10;;
34471;SDS011;20710;49.976;19.836;2023-05-16T11:13:26;4.60;;;3.10;;
34471;SDS011;20710;49.976;19.836;2023-05-16T11:20:37;4.60;;;3.50;;
34471;SDS011;20710;49.976;19.836;2023-05-16T11:26:39;6.90;;;3.60;;
34471;SDS011;20710;49.976;19.836;2023-05-16T11:34:01;4.60;;;3.40;;
34471;SDS011;20710;49.976;19.836;2023-05-16T11:40:04;4.80;;;3.70;;
34471;SDS011;20710;49.976;19.836;2023-05-16T11:46:41;3.90;;;3.30;;
34471;SDS011;20710;49.976;19.836;2023-05-16T11:52:46;4.60;;;3.40;;
34471;SDS011;20710;49.976;19.836;2023-05-16T11:59:07;4.00;;;3.60;;
34471;SDS011;20710;49.976;19.836;2023-05-16T12:06:10;3.50;;;3.10;;
34471;SDS011;20710;49.976;19.836;2023-05-16T12:12:11;5.10;;;3.80;;
34471;SDS011;20710;49.976;19.836;2023-05-16T12:18:33;6.90;;;4.60;;
34471;SDS011;20710;49.976;19.836;2023-05-16T12:25:24;8.10;;;5.20;;
34471;SDS011;20710;49.976;19.836;2023-05-16T12:32:51;5.40;;;4.00;;
34471;SDS011;20710;49.976;19.836;2023-05-16T12:38:54;5.70;;;4.20;;
34471;SDS011;20710;49.976;19.836;2023-05-16T12:44:55;6.90;;;4.20;;
34471;SDS011;20710;49.976;19.836;2023-05-16T12:51:18;9.20;;;3.90;;
34471;SDS011;20710;49.976;19.836;2023-05-16T12:58:06;7.60;;;4.30;;
34471;SDS011;20710;49.976;19.836;2023-05-16T13:04:09;6.10;;;4.20;;
34471;SDS011;20710;49.976;19.836;2023-05-16T13:10:16;5.00;;;4.60;;
34471;SDS011;20710;49.976;19.836;2023-05-16T13:17:24;8.00;;;4.30;;
34471;SDS011;20710;49.976;19.836;2023-05-16T13:24:08;7.80;;;4.90;;
34471;SDS011;20710;49.976;19.836;2023-05-16T13:30:10;8.00;;;5.30;;
34471;SDS011;20710;49.976;19.836;2023-05-16T13:36:11;5.60;;;4.90;;
34471;SDS011;20710;49.976;19.836;2023-05-16T13:42:13;8.00;;;4.80;;
34471;SDS011;20710;49.976;19.836;2023-05-16T13:48:16;5.90;;;5.30;;
34471;SDS011;20710;49.976;19.836;2023-05-16T13:55:08;6.50;;;5.90;;
34471;SDS011;20710;49.976;19.836;2023-05-16T14:02:11;12.80;;;6.10;;
34471;SDS011;20710;49.976;19.836;2023-05-16T14:08:14;8.30;;;6.70;;
34471;SDS011;20710;49.976;19.836;2023-05-16T14:27:55;9.20;;;6.30;;
34471;SDS011;20710;49.976;19.836;2023-05-16T14:34:29;7.60;;;6.30;;
34471;SDS011;20710;49.976;19.836;2023-05-16T14:41:20;8.40;;;6.30;;
34471;SDS011;20710;49.976;19.836;2023-05-16T14:47:45;6.00;;;5.40;;
34471;SDS011;20710;49.976;19.836;2023-05-16T15:01:02;7.50;;;5.40;;
34471;SDS011;20710;49.976;19.836;2023-05-16T15:07:07;7.80;;;5.50;;
34471;SDS011;20710;49.976;19.836;2023-05-16T15:15:09;7.50;;;5.60;;
34471;SDS011;20710;49.976;19.836;2023-05-16T16:00:08;9.20;;;6.90;;
34471;SDS011;20710;49.976;19.836;2023-05-16T16:44:15;7.60;;;6.00;;
34471;SDS011;20710;49.976;19.836;2023-05-16T17:15:28;8.20;;;5.30;;
34471;SDS011;20710;49.976;19.836;2023-05-16T17:29:25;6.60;;;5.40;;
34471;SDS011;20710;49.976;19.836;2023-05-16T17:35:27;7.00;;;6.00;;
34471;SDS011;20710;49.976;19.836;2023-05-16T17:41:29;7.30;;;5.90;;
34471;SDS011;20710;49.976;19.836;2023-05-16T17:55:05;7.00;;;5.90;;
34471;SDS011;20710;49.976;19.836;2023-05-16T18:01:15;7.50;;;6.70;;
34471;SDS011;20710;49.976;19.836;2023-05-16T18:07:17;8.10;;;7.30;;
34471;SDS011;20710;49.976;19.836;2023-05-16T18:13:20;9.20;;;8.30;;
34471;SDS011;20710;49.976;19.836;2023-05-16T18:19:22;10.50;;;7.80;;
34471;SDS011;20710;49.976;19.836;2023-05-16T18:25:25;9.30;;;7.40;;
34471;SDS011;20710;49.976;19.836;2023-05-16T18:31:29;11.80;;;7.90;;
34471;SDS011;20710;49.976;19.836;2023-05-16T18:37:36;18.30;;;10.60;;
34471;SDS011;20710;49.976;19.836;2023-05-16T18:43:43;13.30;;;9.70;;
34471;SDS011;20710;49.976;19.836;2023-05-16T18:49:54;15.10;;;10.80;;
34471;SDS011;20710;49.976;19.836;2023-05-16T18:55:56;12.60;;;10.50;;
34471;SDS011;20710;49.976;19.836;2023-05-16T19:17:52;13.40;;;9.90;;
34471;SDS011;20710;49.976;19.836;2023-05-16T19:23:55;14.00;;;11.60;;
34471;SDS011;20710;49.976;19.836;2023-05-16T19:29:59;15.60;;;11.20;;
34471;SDS011;20710;49.976;19.836;2023-05-16T19:36:04;15.70;;;10.70;;
34471;SDS011;20710;49.976;19.836;2023-05-16T19:42:07;15.50;;;11.70;;
34471;SDS011;20710;49.976;19.836;2023-05-16T19:48:09;15.10;;;12.60;;
34471;SDS011;20710;49.976;19.836;2023-05-16T20:30:18;15.10;;;12.60;;
34471;SDS011;20710;49.976;19.836;2023-05-16T20:36:20;13.80;;;11.90;;
34471;SDS011;20710;49.976;19.836;2023-05-16T21:11:16;17.20;;;15.30;;
34471;SDS011;20710;49.976;19.836;2023-05-16T22:05:05;14.80;;;12.20;;
34471;SDS011;20710;49.976;19.836;2023-05-16T23:28:10;12.00;;;10.40;;
34471;SDS011;20710;49.976;19.836;2023-05-16T23:48:53;11.60;;;7.90;;
